createdAt,value
2019-04-10T00:01:20.614Z,11.54
2019-04-10T00:03:51.418Z,11.55
2019-04-10T00:06:22.068Z,11.58
2019-04-10T00:08:52.821Z,11.53
2019-04-10T00:11:23.339Z,11.36
2019-04-10T00:13:53.758Z,11.39
2019-04-10T00:16:24.481Z,11.50
2019-04-10T00:18:56.128Z,11.49
2019-04-10T00:21:26.364Z,11.48
2019-04-10T00:23:57.672Z,11.47
2019-04-10T00:26:28.482Z,11.49
2019-04-10T00:29:00.143Z,11.25
2019-04-10T00:31:31.782Z,11.43
2019-04-10T00:34:02.623Z,11.56
2019-04-10T00:36:33.188Z,11.55
2019-04-10T00:39:06.478Z,11.56
2019-04-10T00:41:38.547Z,11.60
2019-04-10T00:44:08.992Z,11.67
2019-04-10T00:46:40.082Z,11.63
2019-04-10T00:49:10.694Z,11.62
2019-04-10T00:51:41.737Z,11.63
2019-04-10T00:54:12.391Z,11.66
2019-04-10T00:56:43.364Z,11.64
2019-04-10T00:59:13.804Z,11.63
2019-04-10T01:01:44.408Z,11.62
2019-04-10T01:04:15.139Z,11.65
2019-04-10T01:06:46.310Z,11.66
2019-04-10T01:09:17.386Z,11.59
2019-04-10T01:11:48.020Z,11.59
2019-04-10T01:14:18.671Z,11.56
2019-04-10T01:16:49.553Z,11.56
2019-04-10T01:19:20.261Z,11.58
2019-04-10T01:21:50.752Z,11.53
2019-04-10T01:24:21.655Z,11.55
2019-04-10T01:26:52.365Z,11.54
2019-04-10T01:29:23.747Z,11.40
2019-04-10T01:31:55.267Z,11.54
2019-04-10T01:34:25.745Z,11.35
2019-04-10T01:36:56.486Z,11.52
2019-04-10T01:39:30.582Z,11.57
2019-04-10T01:42:01.203Z,11.58
2019-04-10T01:44:32.944Z,11.60
2019-04-10T01:47:04.591Z,11.58
2019-04-10T01:49:35.274Z,11.55
2019-04-10T01:52:06.835Z,11.52
2019-04-10T01:54:37.571Z,11.49
2019-04-10T01:57:08.240Z,11.51
2019-04-10T01:59:40.305Z,11.52
2019-04-10T02:02:21.811Z,11.50
2019-04-10T02:04:53.838Z,11.46
2019-04-10T02:07:24.671Z,11.49
2019-04-10T02:09:56.164Z,11.44
2019-04-10T02:12:26.673Z,11.41
2019-04-10T02:14:56.950Z,11.35
2019-04-10T02:17:28.510Z,11.25
2019-04-10T02:19:58.925Z,11.29
2019-04-10T02:22:30.771Z,11.21
2019-04-10T02:25:01.624Z,11.22
2019-04-10T02:27:32.214Z,11.32
2019-04-10T02:30:02.521Z,11.25
2019-04-10T02:32:34.568Z,11.26
2019-04-10T02:35:06.890Z,11.33
2019-04-10T02:37:39.435Z,11.48
2019-04-10T02:40:10.863Z,11.48
2019-04-10T02:42:43.191Z,11.46
2019-04-10T02:45:14.864Z,11.52
2019-04-10T02:47:47.268Z,11.52
2019-04-10T02:50:18.781Z,11.47
2019-04-10T02:52:50.854Z,11.32
2019-04-10T02:55:23.010Z,11.41
2019-04-10T02:57:54.206Z,11.48
2019-04-10T03:00:26.652Z,11.44
2019-04-10T03:02:59.171Z,11.34
2019-04-10T03:05:30.310Z,11.42
2019-04-10T03:08:01.114Z,11.51
2019-04-10T03:10:40.491Z,11.56
2019-04-10T03:13:04.723Z,11.56
2019-04-10T03:15:35.950Z,11.56
2019-04-10T03:18:06.643Z,11.60
2019-04-10T03:20:37.061Z,11.55
2019-04-10T03:23:07.396Z,11.54
2019-04-10T03:25:39.195Z,11.54
2019-04-10T03:28:11.080Z,11.56
2019-04-10T03:30:41.922Z,11.52
2019-04-10T03:33:47.222Z,11.43
2019-04-10T03:36:15.799Z,11.43
2019-04-10T03:38:55.253Z,11.46
2019-04-10T03:41:18.582Z,11.35
2019-04-10T03:43:50.061Z,11.29
2019-04-10T03:46:21.487Z,11.25
2019-04-10T03:48:51.974Z,11.23
2019-04-10T03:51:22.887Z,10.95
2019-04-10T03:53:54.241Z,10.97
2019-04-10T03:56:25.551Z,10.70
2019-04-10T03:58:56.313Z,10.94
2019-04-10T04:01:26.993Z,11.06
2019-04-10T04:03:57.761Z,10.90
2019-04-10T04:06:28.444Z,10.97
2019-04-10T04:09:06.939Z,11.00
2019-04-10T04:11:31.809Z,11.01
2019-04-10T04:14:02.322Z,10.99
2019-04-10T04:16:33.280Z,11.04
2019-04-10T04:19:04.458Z,11.02
2019-04-10T04:21:36.026Z,11.04
2019-04-10T04:24:07.176Z,10.98
2019-04-10T04:26:37.993Z,10.98
2019-04-10T04:29:09.449Z,10.93
2019-04-10T04:31:41.994Z,10.96
2019-04-10T04:34:12.608Z,10.84
2019-04-10T04:36:43.264Z,10.80
2019-04-10T04:39:23.189Z,10.77
2019-04-10T04:41:47.889Z,10.73
2019-04-10T04:44:18.283Z,10.67
2019-04-10T04:46:50.611Z,10.71
2019-04-10T04:49:21.265Z,10.65
2019-04-10T04:51:52.659Z,10.69
2019-04-10T04:54:23.471Z,10.69
2019-04-10T04:56:53.997Z,10.69
2019-04-10T04:59:24.551Z,10.67
2019-04-10T05:01:55.043Z,10.65
2019-04-10T05:04:26.987Z,10.61
2019-04-10T05:06:59.914Z,10.61
2019-04-10T05:09:36.588Z,10.58
2019-04-10T05:12:02.930Z,10.66
2019-04-10T05:14:33.572Z,10.67
2019-04-10T05:17:04.239Z,10.66
2019-04-10T05:19:36.100Z,10.75
2019-04-10T05:22:06.482Z,10.77
2019-04-10T05:24:37.007Z,10.83
2019-04-10T05:27:07.811Z,10.85
2019-04-10T05:29:38.741Z,10.84
2019-04-10T05:32:09.335Z,10.81
2019-04-10T05:34:40.417Z,10.84
2019-04-10T05:37:11.456Z,10.80
2019-04-10T05:39:47.619Z,10.87
2019-04-10T05:42:14.808Z,10.94
2019-04-10T05:44:45.397Z,11.01
2019-04-10T05:47:17.067Z,11.12
2019-04-10T05:49:47.533Z,11.19
2019-04-10T05:52:18.306Z,11.32
2019-04-10T05:54:49.362Z,11.47
2019-04-10T05:57:20.515Z,11.63
2019-04-10T05:59:50.988Z,11.75
2019-04-10T06:02:21.544Z,11.82
2019-04-10T06:04:52.234Z,11.89
2019-04-10T06:07:23.166Z,11.90
2019-04-10T06:09:59.590Z,11.86
2019-04-10T06:12:26.491Z,11.86
2019-04-10T06:14:56.887Z,11.82
2019-04-10T06:17:27.311Z,11.76
2019-04-10T06:19:58.678Z,11.74
2019-04-10T06:22:30.407Z,11.77
2019-04-10T06:25:00.845Z,11.86
2019-04-10T06:27:32.414Z,11.89
2019-04-10T06:30:03.661Z,11.99
2019-04-10T06:32:34.721Z,12.04
2019-04-10T06:35:05.783Z,12.10
2019-04-10T06:37:36.196Z,12.11
2019-04-10T06:40:15.103Z,12.19
2019-04-10T06:42:46.169Z,12.12
2019-04-10T06:45:11.470Z,12.21
2019-04-10T06:47:42.486Z,12.28
2019-04-10T06:50:13.181Z,12.31
2019-04-10T06:52:45.068Z,12.56
2019-04-10T06:55:15.799Z,12.66
2019-04-10T06:57:52.054Z,12.78
2019-04-10T07:00:19.736Z,12.87
2019-04-10T07:02:51.291Z,12.93
2019-04-10T07:05:24.179Z,13.32
2019-04-10T07:08:02.801Z,13.45
2019-04-10T07:10:33.594Z,13.56
2019-04-10T07:12:59.654Z,13.61
2019-04-10T07:15:29.989Z,13.62
2019-04-10T07:18:00.987Z,13.52
2019-04-10T07:20:31.657Z,13.60
2019-04-10T07:23:03.054Z,13.51
2019-04-10T07:25:34.153Z,13.54
2019-04-10T07:28:07.397Z,13.49
2019-04-10T07:30:38.002Z,13.60
2019-04-10T07:33:09.695Z,13.69
2019-04-10T07:35:40.681Z,13.70
2019-04-10T07:38:11.821Z,13.74
2019-04-10T07:40:42.911Z,13.74
2019-04-10T07:43:13.560Z,13.49
2019-04-10T07:45:44.224Z,13.67
2019-04-10T07:48:15.018Z,13.71
2019-04-10T07:50:46.746Z,13.71
2019-04-10T07:53:17.616Z,13.66
2019-04-10T07:55:58.455Z,13.67
2019-04-10T07:58:21.435Z,13.74
2019-04-10T08:00:53.134Z,13.81
2019-04-10T08:03:25.153Z,13.94
2019-04-10T08:05:56.095Z,14.04
2019-04-10T08:08:27.730Z,14.10
2019-04-10T08:10:59.391Z,14.22
2019-04-10T08:13:30.869Z,14.22
2019-04-10T08:16:01.438Z,14.19
2019-04-10T08:18:32.095Z,14.17
2019-04-10T08:21:02.936Z,14.22
2019-04-10T08:23:35.639Z,14.36
2019-04-10T08:26:08.097Z,14.34
2019-04-10T08:28:38.801Z,14.51
2019-04-10T08:31:09.029Z,14.54
2019-04-10T08:33:39.480Z,14.58
2019-04-10T08:36:10.905Z,14.52
2019-04-10T08:38:42.182Z,14.68
2019-04-10T08:41:13.138Z,14.79
2019-04-10T08:43:43.897Z,14.97
2019-04-10T08:46:14.337Z,14.98
2019-04-10T08:48:44.842Z,15.15
2019-04-10T08:51:16.825Z,15.17
2019-04-10T08:53:48.756Z,15.52
2019-04-10T08:56:20.422Z,15.64
2019-04-10T08:58:51.683Z,15.70
2019-04-10T09:01:23.012Z,15.92
2019-04-10T09:03:55.258Z,16.10
2019-04-10T09:06:25.703Z,16.12
2019-04-10T09:08:57.183Z,16.14
2019-04-10T09:11:29.789Z,16.32
2019-04-10T09:13:59.701Z,16.44
2019-04-10T09:16:31.006Z,16.61
2019-04-10T09:19:02.030Z,17.23
2019-04-10T09:21:32.821Z,17.32
2019-04-10T09:24:04.640Z,17.66
2019-04-10T09:26:36.241Z,17.73
2019-04-10T09:29:07.365Z,18.02
2019-04-10T09:31:37.921Z,18.05
2019-04-10T09:34:09.681Z,18.34
2019-04-10T09:36:41.644Z,18.53
2019-04-10T09:39:12.355Z,18.06
2019-04-10T09:41:43.917Z,17.96
2019-04-10T09:44:14.748Z,18.04
2019-04-10T09:46:45.529Z,18.37
2019-04-10T09:49:16.586Z,18.36
2019-04-10T09:51:48.183Z,18.51
2019-04-10T09:54:18.947Z,18.79
2019-04-10T09:56:50.538Z,19.26
2019-04-10T09:59:31.153Z,19.11
2019-04-10T10:01:54.892Z,18.55
2019-04-10T10:04:25.802Z,18.61
2019-04-10T10:06:56.259Z,18.56
2019-04-10T10:09:29.089Z,18.79
2019-04-10T10:11:59.319Z,18.12
2019-04-10T10:14:31.907Z,18.04
2019-04-10T10:17:02.274Z,17.80
2019-04-10T10:19:34.147Z,17.70
2019-04-10T10:22:06.153Z,17.69
2019-04-10T10:24:38.524Z,17.41
2019-04-10T10:27:09.489Z,17.42
2019-04-10T10:29:39.972Z,17.38
2019-04-10T10:32:11.051Z,17.45
2019-04-10T10:34:42.735Z,17.87
2019-04-10T10:37:13.208Z,18.14
2019-04-10T10:39:43.707Z,18.51
2019-04-10T10:42:14.348Z,18.97
2019-04-10T10:44:45.952Z,19.47
2019-04-10T10:47:17.570Z,19.84
2019-04-10T10:49:48.762Z,19.74
2019-04-10T10:52:19.496Z,19.71
2019-04-10T10:54:50.110Z,19.41
2019-04-10T10:57:20.647Z,19.14
2019-04-10T10:59:51.511Z,19.21
2019-04-10T11:02:22.289Z,19.68
2019-04-10T11:04:53.681Z,19.81
2019-04-10T11:07:24.566Z,19.76
2019-04-10T11:09:55.175Z,20.12
2019-04-10T11:12:26.362Z,20.19
2019-04-10T11:14:57.375Z,20.66
2019-04-10T11:17:28.187Z,20.60
2019-04-10T11:19:59.506Z,20.25
2019-04-10T11:22:31.550Z,19.94
2019-04-10T11:25:03.743Z,19.64
2019-04-10T11:27:37.315Z,19.22
2019-04-10T11:30:08.385Z,19.26
2019-04-10T11:32:39.422Z,19.65
2019-04-10T11:35:11.178Z,19.75
2019-04-10T11:37:45.449Z,19.46
2019-04-10T11:40:16.247Z,19.50
2019-04-10T11:42:47.109Z,19.34
2019-04-10T11:45:19.182Z,19.05
2019-04-10T11:47:51.239Z,18.60
2019-04-10T11:50:24.706Z,18.58
2019-04-10T11:52:56.108Z,18.08
2019-04-10T11:55:27.802Z,18.02
2019-04-10T11:57:59.938Z,17.69
2019-04-10T12:00:45.327Z,17.32
2019-04-10T12:03:12.753Z,16.95
2019-04-10T12:05:46.196Z,16.82
2019-04-10T12:08:41.938Z,16.90
2019-04-10T12:13:20.468Z,16.78
2019-04-10T12:15:50.974Z,16.54
2019-04-10T12:18:22.453Z,16.55
2019-04-10T12:20:53.569Z,16.55
2019-04-10T12:23:25.124Z,16.61
2019-04-10T12:25:55.811Z,16.73
2019-04-10T12:28:25.997Z,16.70
2019-04-10T12:30:56.650Z,16.70
2019-04-10T12:33:27.628Z,16.91
2019-04-10T12:35:58.351Z,17.17
2019-04-10T12:38:29.772Z,17.43
2019-04-10T12:41:01.322Z,18.29
2019-04-10T12:43:32.624Z,19.38
2019-04-10T12:46:04.470Z,19.96
2019-04-10T12:48:35.321Z,20.25
2019-04-10T12:51:05.941Z,20.50
2019-04-10T12:53:36.326Z,21.61
2019-04-10T12:56:06.593Z,21.93
2019-04-10T12:58:37.444Z,21.38
2019-04-10T13:01:08.767Z,21.16
2019-04-10T13:03:39.480Z,20.94
2019-04-10T13:06:09.832Z,20.65
2019-04-10T13:08:55.894Z,20.21
2019-04-10T13:11:12.817Z,20.92
2019-04-10T13:13:44.373Z,21.76
2019-04-10T13:16:16.153Z,22.39
2019-04-10T13:18:47.209Z,22.17
2019-04-10T13:21:18.216Z,20.96
2019-04-10T13:23:49.075Z,21.23
2019-04-10T13:26:19.824Z,20.61
2019-04-10T13:28:50.426Z,20.20
2019-04-10T13:31:21.468Z,19.53
2019-04-10T13:33:53.033Z,18.97
2019-04-10T13:36:23.968Z,18.53
2019-04-10T13:38:54.820Z,18.24
2019-04-10T13:41:26.150Z,17.70
2019-04-10T13:43:55.673Z,17.42
2019-04-10T13:46:26.863Z,17.25
2019-04-10T13:48:57.667Z,17.16
2019-04-10T13:51:28.120Z,17.01
2019-04-10T13:53:58.563Z,17.05
2019-04-10T13:56:28.939Z,16.75
2019-04-10T13:59:00.346Z,16.50
2019-04-10T14:01:33.540Z,16.52
2019-04-10T14:04:04.925Z,16.62
2019-04-10T14:06:36.014Z,16.32
2019-04-10T14:09:27.732Z,16.27
2019-04-10T14:11:41.665Z,16.36
2019-04-10T14:14:13.204Z,16.31
2019-04-10T14:16:44.643Z,16.22
2019-04-10T14:19:15.408Z,16.48
2019-04-10T14:21:46.049Z,16.52
2019-04-10T14:24:17.876Z,16.37
2019-04-10T14:27:00.621Z,16.57
2019-04-10T14:29:32.257Z,16.56
2019-04-10T14:32:07.041Z,16.57
2019-04-10T14:34:38.689Z,16.72
2019-04-10T14:37:13.740Z,16.59
2019-04-10T14:42:16.010Z,16.71
2019-04-10T14:44:46.728Z,16.70
2019-04-10T14:47:17.415Z,16.53
2019-04-10T14:49:48.017Z,16.46
2019-04-10T14:52:18.967Z,16.49
2019-04-10T14:54:50.313Z,16.56
2019-04-10T14:57:21.017Z,16.74
2019-04-10T14:59:52.533Z,16.82
2019-04-10T15:02:24.584Z,17.14
2019-04-10T15:04:55.507Z,17.61
2019-04-10T15:07:26.816Z,17.63
2019-04-10T15:09:57.671Z,17.79
2019-04-10T15:12:28.179Z,17.69
2019-04-10T15:14:59.551Z,17.31
2019-04-10T15:17:30.773Z,17.06
2019-04-10T15:20:01.339Z,16.38
2019-04-10T15:22:32.002Z,16.06
2019-04-10T15:25:05.066Z,16.03
2019-04-10T15:27:35.494Z,15.98
2019-04-10T15:30:06.559Z,15.78
2019-04-10T15:32:37.800Z,15.67
2019-04-10T15:35:08.559Z,15.50
2019-04-10T15:37:39.992Z,15.52
2019-04-10T15:40:18.569Z,15.45
2019-04-10T15:42:43.963Z,15.43
2019-04-10T15:45:14.929Z,15.22
2019-04-10T15:47:52.636Z,15.19
2019-04-10T15:50:18.078Z,15.23
2019-04-10T15:52:48.652Z,15.14
2019-04-10T15:55:19.517Z,15.12
2019-04-10T15:57:53.866Z,15.28
2019-04-10T16:00:23.189Z,15.12
2019-04-10T16:02:55.081Z,14.98
2019-04-10T16:05:26.053Z,15.23
2019-04-10T16:07:56.575Z,15.22
2019-04-10T16:10:46.187Z,15.40
2019-04-10T16:13:36.658Z,15.19
2019-04-10T16:16:25.533Z,14.96
2019-04-10T16:19:04.828Z,14.81
2019-04-10T16:21:36.535Z,14.81
2019-04-10T16:24:09.553Z,14.68
2019-04-10T16:26:41.124Z,14.62
2019-04-10T16:29:12.803Z,14.84
2019-04-10T16:31:44.007Z,14.87
2019-04-10T16:34:15.692Z,14.76
2019-04-10T16:36:46.185Z,14.77
2019-04-10T16:39:17.736Z,14.66
2019-04-10T16:41:50.247Z,14.45
2019-04-10T16:44:21.820Z,14.50
2019-04-10T16:46:53.159Z,14.43
2019-04-10T16:49:24.595Z,14.54
2019-04-10T16:51:56.608Z,14.56
2019-04-10T16:54:27.238Z,14.61
2019-04-10T16:56:58.295Z,14.61
2019-04-10T16:59:29.945Z,14.64
2019-04-10T17:02:01.872Z,14.67
2019-04-10T17:04:32.436Z,14.64
2019-04-10T17:07:03.194Z,14.66
2019-04-10T17:09:34.494Z,14.59
2019-04-10T17:12:06.558Z,14.50
2019-04-10T17:14:37.850Z,14.52
2019-04-10T17:17:08.626Z,14.30
2019-04-10T17:19:48.768Z,14.37
2019-04-10T17:22:11.747Z,14.32
2019-04-10T17:24:42.200Z,14.21
2019-04-10T17:27:13.213Z,14.20
2019-04-10T17:29:45.143Z,13.94
2019-04-10T17:32:15.694Z,13.77
2019-04-10T17:34:47.197Z,13.86
2019-04-10T17:37:18.481Z,13.79
2019-04-10T17:39:49.476Z,13.65
2019-04-10T17:42:21.897Z,13.53
2019-04-10T17:44:52.451Z,13.57
2019-04-10T17:47:22.907Z,13.49
2019-04-10T17:49:53.978Z,13.42
2019-04-10T17:52:27.009Z,13.44
2019-04-10T17:54:58.854Z,13.28
2019-04-10T17:57:38.376Z,13.32
2019-04-10T18:00:02.996Z,13.21
2019-04-10T18:02:35.447Z,13.17
2019-04-10T18:05:06.524Z,13.13
2019-04-10T18:07:38.426Z,13.12
2019-04-10T18:10:09.196Z,13.10
2019-04-10T18:12:40.591Z,13.07
2019-04-10T18:15:11.551Z,12.98
2019-04-10T18:17:43.005Z,12.99
2019-04-10T18:20:13.943Z,12.94
2019-04-10T18:22:45.061Z,12.93
2019-04-10T18:25:15.901Z,12.77
2019-04-10T18:27:46.891Z,12.73
2019-04-10T18:30:17.487Z,12.54
2019-04-10T18:32:48.014Z,12.56
2019-04-10T18:35:18.792Z,12.39
2019-04-10T18:37:49.939Z,12.49
2019-04-10T18:40:21.183Z,12.45
2019-04-10T18:42:51.830Z,12.40
2019-04-10T18:45:23.790Z,12.35
2019-04-10T18:47:54.677Z,12.28
2019-04-10T18:50:26.492Z,12.26
2019-04-10T18:52:57.247Z,12.25
2019-04-10T18:55:28.117Z,12.24
2019-04-10T18:57:59.121Z,12.15
2019-04-10T19:00:48.557Z,12.09
2019-04-10T19:03:31.593Z,11.92
2019-04-10T19:06:04.672Z,11.78
2019-04-10T19:08:35.589Z,11.63
2019-04-10T19:11:17.569Z,11.52
2019-04-10T19:13:40.341Z,11.49
2019-04-10T19:16:12.967Z,11.37
2019-04-10T19:18:44.051Z,11.31
2019-04-10T19:21:15.595Z,11.27
2019-04-10T19:23:46.268Z,11.16
2019-04-10T19:26:21.108Z,11.13
2019-04-10T19:28:52.792Z,11.16
2019-04-10T19:31:24.663Z,11.13
2019-04-10T19:33:55.279Z,11.11
2019-04-10T19:36:26.396Z,11.13
2019-04-10T19:38:57.879Z,11.09
2019-04-10T19:41:34.687Z,11.09
2019-04-10T19:44:02.311Z,11.04
2019-04-10T19:46:33.416Z,11.05
2019-04-10T19:49:04.383Z,11.06
2019-04-10T19:51:36.320Z,11.03
2019-04-10T19:54:09.642Z,10.83
2019-04-10T19:56:40.536Z,10.65
2019-04-10T19:59:11.103Z,10.79
2019-04-10T20:01:42.373Z,10.89
2019-04-10T20:04:13.102Z,10.86
2019-04-10T20:06:44.737Z,10.98
2019-04-10T20:09:16.978Z,11.03
2019-04-10T20:11:52.527Z,11.04
2019-04-10T20:14:20.105Z,11.06
2019-04-10T20:16:51.266Z,11.04
2019-04-10T20:19:22.400Z,11.07
2019-04-10T20:21:52.930Z,11.06
2019-04-10T20:24:23.457Z,11.06
2019-04-10T20:26:54.110Z,11.09
2019-04-10T20:29:24.644Z,11.10
2019-04-10T20:31:57.423Z,11.12
2019-04-10T20:34:29.300Z,11.17
2019-04-10T20:37:06.599Z,11.10
2019-04-10T20:39:33.647Z,11.12
2019-04-10T20:42:05.623Z,11.12
2019-04-10T20:44:36.593Z,11.17
2019-04-10T20:47:08.746Z,11.17
2019-04-10T20:49:40.469Z,11.20
2019-04-10T20:52:11.943Z,11.22
2019-04-10T20:54:43.315Z,11.23
2019-04-10T20:57:15.066Z,11.23
2019-04-10T20:59:45.794Z,11.22
2019-04-10T21:02:16.692Z,11.21
2019-04-10T21:04:56.392Z,11.18
2019-04-10T21:07:19.694Z,11.09
2019-04-10T21:09:50.330Z,11.09
2019-04-10T21:12:21.437Z,11.02
2019-04-10T21:14:52.563Z,10.93
2019-04-10T21:17:23.310Z,10.86
2019-04-10T21:19:55.858Z,10.84
2019-04-10T21:22:26.549Z,10.74
2019-04-10T21:24:57.039Z,10.74
2019-04-10T21:27:27.950Z,10.74
2019-04-10T21:30:05.194Z,10.71
2019-04-10T21:32:58.310Z,10.72
2019-04-10T21:35:32.886Z,10.73
2019-04-10T21:38:04.684Z,10.76
2019-04-10T21:40:35.288Z,10.78
2019-04-10T21:43:07.011Z,10.83
2019-04-10T21:45:37.499Z,10.84
2019-04-10T21:48:08.531Z,10.88
2019-04-10T21:50:39.804Z,10.79
2019-04-10T21:53:10.691Z,10.76
2019-04-10T21:55:41.721Z,10.65
2019-04-10T21:58:14.412Z,10.61
2019-04-10T22:01:07.595Z,10.65
2019-04-10T22:03:39.387Z,10.62
2019-04-10T22:06:41.079Z,10.57
2019-04-10T22:09:35.036Z,10.57
2019-04-10T22:12:23.698Z,10.58
2019-04-10T22:14:45.720Z,10.52
2019-04-10T22:17:17.087Z,10.40
2019-04-10T22:19:47.441Z,10.35
2019-04-10T22:22:18.152Z,10.33
2019-04-10T22:24:48.654Z,10.32
2019-04-10T22:27:19.441Z,10.32
2019-04-10T22:29:50.044Z,10.23
2019-04-10T22:32:20.706Z,10.18
2019-04-10T22:34:52.699Z,10.13
2019-04-10T22:37:23.666Z,10.13
2019-04-10T22:39:54.550Z,10.11
2019-04-10T22:42:37.964Z,10.14
2019-04-10T22:44:58.234Z,10.22
2019-04-10T22:47:29.681Z,10.16
2019-04-10T22:50:01.473Z,10.27
2019-04-10T22:52:32.431Z,10.36
2019-04-10T22:55:03.641Z,10.40
2019-04-10T22:57:34.831Z,10.41
2019-04-10T23:00:05.725Z,10.40
2019-04-10T23:02:37.872Z,10.31
2019-04-10T23:05:08.436Z,10.28
2019-04-10T23:07:39.273Z,10.26
2019-04-10T23:10:12.875Z,10.30
2019-04-10T23:12:52.206Z,10.25
2019-04-10T23:15:16.096Z,10.23
2019-04-10T23:17:46.842Z,10.18
2019-04-10T23:20:18.257Z,10.17
2019-04-10T23:22:49.005Z,10.11
2019-04-10T23:25:20.497Z,10.10
2019-04-10T23:27:54.607Z,10.07
2019-04-10T23:30:24.634Z,10.10
2019-04-10T23:32:55.695Z,10.11
2019-04-10T23:35:27.544Z,10.15
2019-04-10T23:37:59.388Z,10.24
2019-04-10T23:40:30.143Z,10.28
2019-04-10T23:43:09.627Z,10.38
2019-04-10T23:45:33.532Z,10.39
2019-04-10T23:48:04.580Z,10.49
2019-04-10T23:50:36.428Z,10.49
2019-04-10T23:53:07.122Z,10.50
2019-04-10T23:55:37.975Z,10.57
2019-04-10T23:58:09.403Z,10.61
